Time;durP1;ratioP1;P1;durP2;ratioP2;P2;SDS_P1;SDS_P2;PMS_P1;PMS_P2;Temp;Humidity;BMP_temperature;BMP_pressure;BME280_temperature;BME280_humidity;BME280_pressure;Samples;Min_cycle;Max_cycle;Signal;HPM_P1;HPM_P2
2023/07/20 00:01:22;;;;;;;0.20;0.20;;;23.50;99.90;;;;;;5042171;28;20091;-80
2023/07/20 00:03:54;;;;;;;0.10;0.10;;;23.50;99.90;;;;;;5042252;28;20016;-76
2023/07/20 00:06:25;;;;;;;0.73;0.65;;;23.70;99.90;;;;;;5042301;28;20017;-78
2023/07/20 00:08:51;;;;;;;0.13;0.13;;;23.60;99.90;;;;;;5041641;28;20021;-75
2023/07/20 00:11:17;;;;;;;0.10;0.10;;;23.20;99.90;;;;;;5042347;28;20052;-84
2023/07/20 00:13:43;;;;;;;0.10;0.10;;;22.90;99.90;;;;;;5041600;28;20115;-75
2023/07/20 00:16:09;;;;;;;0.20;0.20;;;22.70;99.90;;;;;;5041378;28;20013;-77
2023/07/20 00:18:35;;;;;;;0.05;0.05;;;22.60;99.90;;;;;;5042666;28;20139;-81
2023/07/20 00:21:01;;;;;;;0.10;0.10;;;21.50;99.90;;;;;;5046893;28;20020;-75
2023/07/20 00:23:27;;;;;;;0.60;0.60;;;23.30;99.90;;;;;;5046544;28;20021;-80
2023/07/20 00:25:53;;;;;;;0.10;0.10;;;23.50;99.90;;;;;;5049055;28;20075;-81
2023/07/20 00:28:19;;;;;;;0.10;0.10;;;23.50;99.90;;;;;;5045801;28;20044;-76
2023/07/20 00:30:45;;;;;;;0.10;0.10;;;24.20;99.90;;;;;;5043826;28;20501;-78
2023/07/20 00:33:12;;;;;;;0.68;0.68;;;23.60;99.90;;;;;;5043188;28;20057;-82
2023/07/20 00:35:40;;;;;;;0.10;0.10;;;23.40;99.90;;;;;;5042294;28;20056;-75
2023/07/20 00:38:06;;;;;;;0.00;0.00;;;23.60;99.90;;;;;;5041285;28;20617;-86
2023/07/20 00:40:41;;;;;;;0.10;0.10;;;23.70;99.90;;;;;;5040988;28;20043;-85
2023/07/20 00:43:09;;;;;;;6.03;1.30;;;23.20;99.90;;;;;;5040124;28;20120;-84
2023/07/20 00:45:37;;;;;;;0.10;0.10;;;23.60;99.90;;;;;;5039992;28;20028;-82
2023/07/20 00:48:06;;;;;;;0.45;0.45;;;23.40;99.90;;;;;;5040906;28;20048;-90
2023/07/20 00:50:33;;;;;;;0.15;0.15;;;23.20;99.90;;;;;;5041321;28;20266;-80
2023/07/20 00:52:59;;;;;;;0.65;0.65;;;23.30;99.90;;;;;;5039862;28;20029;-82
2023/07/20 00:55:26;;;;;;;1.55;0.82;;;23.20;99.90;;;;;;5039754;28;20100;-75
2023/07/20 00:57:52;;;;;;;0.10;0.10;;;23.40;99.90;;;;;;5040446;28;20037;-75
2023/07/20 01:00:19;;;;;;;0.20;0.20;;;22.00;99.90;;;;;;5039402;28;20737;-80
2023/07/20 01:02:46;;;;;;;1.45;0.77;;;23.30;99.90;;;;;;5041253;28;20025;-80
2023/07/20 01:05:16;;;;;;;0.85;0.85;;;23.20;99.90;;;;;;5040759;28;20017;-83
2023/07/20 01:08:06;;;;;;;2.10;1.77;;;23.10;99.90;;;;;;5039077;28;20065;-75
2023/07/20 01:10:41;;;;;;;0.10;0.10;;;22.80;99.90;;;;;;5040364;28;20021;-77
2023/07/20 01:13:10;;;;;;;0.10;0.10;;;22.40;99.90;;;;;;5040814;28;20261;-79
2023/07/20 01:15:35;;;;;;;0.10;0.10;;;22.60;99.90;;;;;;5039550;28;20020;-88
2023/07/20 01:18:01;;;;;;;0.10;0.10;;;22.50;99.90;;;;;;5040537;28;20017;-89
2023/07/20 01:20:30;;;;;;;0.10;0.10;;;22.50;99.90;;;;;;5041349;28;20031;-77
2023/07/20 01:22:59;;;;;;;35.58;1.52;;;22.50;99.90;;;;;;5041315;28;20024;-75
2023/07/20 01:25:42;;;;;;;0.10;0.10;;;22.70;99.90;;;;;;5041313;28;20028;-90
2023/07/20 01:28:29;;;;;;;0.15;0.15;;;22.60;99.90;;;;;;5040815;28;20101;-86
2023/07/20 01:31:27;;;;;;;0.10;0.10;;;22.70;99.90;;;;;;5041018;28;20044;-77
2023/07/20 01:33:58;;;;;;;0.10;0.10;;;22.50;99.90;;;;;;5040187;28;20134;-84
2023/07/20 01:36:27;;;;;;;0.10;0.10;;;22.30;99.90;;;;;;5039635;28;20020;-80
2023/07/20 01:38:53;;;;;;;0.20;0.20;;;22.30;99.90;;;;;;5039239;28;20580;-85
2023/07/20 01:41:19;;;;;;;0.13;0.13;;;22.20;99.90;;;;;;5039539;28;20024;-86
2023/07/20 01:43:45;;;;;;;10.13;0.98;;;22.70;99.90;;;;;;5039274;28;20603;-83
2023/07/20 01:46:11;;;;;;;0.25;0.25;;;22.80;99.90;;;;;;5040463;28;20029;-84
2023/07/20 01:48:37;;;;;;;0.10;0.10;;;23.00;99.90;;;;;;5039878;28;20679;-78
2023/07/20 01:51:02;;;;;;;0.10;0.10;;;22.80;99.90;;;;;;5040004;28;20086;-76
2023/07/20 01:53:28;;;;;;;0.10;0.10;;;22.50;99.90;;;;;;5041681;28;20667;-83
2023/07/20 01:55:54;;;;;;;0.52;0.52;;;22.30;99.90;;;;;;5038405;28;20490;-83
2023/07/20 01:58:20;;;;;;;0.03;0.03;;;22.60;99.90;;;;;;5040807;28;20048;-91
2023/07/20 02:00:46;;;;;;;0.50;0.50;;;23.00;99.90;;;;;;5041641;28;20025;-78
2023/07/20 02:03:12;;;;;;;0.10;0.10;;;23.20;99.90;;;;;;5040775;28;20021;-78
2023/07/20 02:05:42;;;;;;;0.30;0.30;;;23.40;99.90;;;;;;5041545;28;20044;-77
2023/07/20 02:08:08;;;;;;;0.20;0.20;;;23.70;99.90;;;;;;5043334;28;20041;-82
2023/07/20 02:10:34;;;;;;;0.10;0.10;;;23.80;99.90;;;;;;5049144;28;20021;-86
2023/07/20 02:13:00;;;;;;;0.28;0.28;;;23.90;99.90;;;;;;5050464;28;20024;-79
2023/07/20 02:15:25;;;;;;;0.98;0.98;;;24.00;99.90;;;;;;5051637;28;20021;-83
2023/07/20 02:17:51;;;;;;;0.20;0.20;;;23.90;99.90;;;;;;5052129;28;20017;-76
2023/07/20 02:20:17;;;;;;;0.10;0.10;;;23.90;99.90;;;;;;5050987;28;20068;-86
2023/07/20 02:22:43;;;;;;;0.10;0.10;;;23.90;99.90;;;;;;5044323;28;20210;-78
2023/07/20 02:25:09;;;;;;;0.05;0.05;;;23.80;99.90;;;;;;5044814;28;20525;-84
2023/07/20 02:27:35;;;;;;;0.35;0.25;;;23.70;99.90;;;;;;5042409;28;20063;-83
2023/07/20 02:30:01;;;;;;;0.20;0.20;;;23.70;99.90;;;;;;5046163;28;20025;-87
2023/07/20 02:32:28;;;;;;;0.10;0.10;;;23.60;99.90;;;;;;5044709;28;20044;-76
2023/07/20 02:34:57;;;;;;;0.10;0.10;;;23.40;99.90;;;;;;5043251;28;20075;-85
2023/07/20 02:37:23;;;;;;;0.00;0.00;;;23.40;99.90;;;;;;5041276;28;20032;-77
2023/07/20 02:39:49;;;;;;;0.10;0.10;;;23.30;99.90;;;;;;5034348;28;20595;-76
2023/07/20 02:42:15;;;;;;;1.95;1.48;;;22.80;99.90;;;;;;5022876;28;20130;-86
2023/07/20 02:44:41;;;;;;;0.17;0.17;;;22.50;99.90;;;;;;5024511;28;20017;-74
2023/07/20 02:47:07;;;;;;;0.75;0.75;;;22.40;99.90;;;;;;5025212;28;20537;-92
2023/07/20 02:49:32;;;;;;;0.25;0.25;;;22.40;99.90;;;;;;5027496;28;20025;-83
2023/07/20 02:51:58;;;;;;;0.25;0.25;;;22.40;99.90;;;;;;5027237;28;20700;-88
2023/07/20 02:54:24;;;;;;;0.10;0.10;;;22.30;99.90;;;;;;5022907;28;20010;-78
2023/07/20 02:56:50;;;;;;;15.60;2.75;;;22.30;99.90;;;;;;5019920;28;20024;-76
2023/07/20 02:59:15;;;;;;;0.00;0.00;;;22.00;99.90;;;;;;5020899;28;20103;-83
2023/07/20 03:01:44;;;;;;;1.60;1.50;;;20.20;99.90;;;;;;5020830;28;20651;-86
2023/07/20 03:04:10;;;;;;;0.20;0.20;;;20.10;99.90;;;;;;5019696;28;20013;-90
2023/07/20 03:06:36;;;;;;;0.13;0.13;;;19.60;99.90;;;;;;5017844;28;20040;-90
2023/07/20 03:09:03;;;;;;;0.20;0.20;;;19.40;99.90;;;;;;5019153;28;20265;-82
2023/07/20 03:11:29;;;;;;;0.10;0.10;;;21.80;99.90;;;;;;5019093;28;20662;-78
2023/07/20 03:13:55;;;;;;;0.10;0.10;;;19.10;99.90;;;;;;5017452;28;20639;-79
2023/07/20 03:16:23;;;;;;;1.55;1.45;;;19.00;99.90;;;;;;5017712;28;20101;-84
2023/07/20 03:18:49;;;;;;;0.10;0.10;;;18.90;99.90;;;;;;5018932;28;20467;-87
2023/07/20 03:21:15;;;;;;;0.13;0.13;;;18.90;99.90;;;;;;5017738;28;20083;-76
2023/07/20 03:23:41;;;;;;;0.40;0.40;;;18.80;99.90;;;;;;5018306;28;20059;-82
2023/07/20 03:26:10;;;;;;;0.10;0.10;;;18.80;99.90;;;;;;5021972;28;20018;-80
2023/07/20 03:28:37;;;;;;;0.85;0.82;;;18.80;99.90;;;;;;5026617;28;20028;-82
2023/07/20 03:31:03;;;;;;;0.10;0.10;;;18.70;99.90;;;;;;5027052;28;20014;-84
2023/07/20 03:33:30;;;;;;;3.47;1.67;;;18.80;99.90;;;;;;5029602;28;20032;-81
2023/07/20 03:35:56;;;;;;;0.00;0.00;;;18.80;99.90;;;;;;5025942;28;20022;-80
2023/07/20 03:38:23;;;;;;;0.17;0.17;;;18.80;99.90;;;;;;5024350;28;20026;-80
2023/07/20 03:40:56;;;;;;;0.10;0.10;;;18.80;99.90;;;;;;5024819;28;20079;-87
2023/07/20 03:43:23;;;;;;;0.10;0.10;;;18.80;99.90;;;;;;5024294;28;20025;-80
2023/07/20 03:45:49;;;;;;;0.10;0.10;;;18.60;99.90;;;;;;5021734;28;20250;-86
2023/07/20 03:48:17;;;;;;;0.08;0.08;;;18.30;99.90;;;;;;5020526;28;20029;-76
2023/07/20 03:50:45;;;;;;;0.10;0.10;;;18.60;99.90;;;;;;5018514;28;20045;-77
2023/07/20 03:53:11;;;;;;;0.10;0.10;;;18.90;99.90;;;;;;5018637;28;20107;-79
2023/07/20 03:55:37;;;;;;;0.10;0.10;;;19.40;99.90;;;;;;5018458;28;20024;-86
2023/07/20 03:58:03;;;;;;;0.15;0.15;;;20.10;99.90;;;;;;5018458;28;20590;-80
2023/07/20 04:00:29;;;;;;;0.03;0.03;;;20.80;99.90;;;;;;5019802;28;20746;-81
2023/07/20 04:02:55;;;;;;;0.10;0.10;;;21.00;99.90;;;;;;5021611;28;20022;-77
2023/07/20 04:05:21;;;;;;;0.00;0.00;;;20.90;99.90;;;;;;5018462;28;20655;-79
2023/07/20 04:07:47;;;;;;;0.30;0.30;;;21.60;99.90;;;;;;5017858;28;20025;-80
2023/07/20 04:10:13;;;;;;;0.17;0.17;;;24.00;99.90;;;;;;5018234;28;20013;-76
2023/07/20 04:12:39;;;;;;;0.10;0.10;;;;;;;;;;5017981;28;20080;-84
2023/07/20 04:15:06;;;;;;;0.10;0.10;;;22.00;99.90;;;;;;5018767;28;20072;-80
2023/07/20 04:17:31;;;;;;;0.00;0.00;;;22.10;99.90;;;;;;5031987;28;20053;-80
2023/07/20 04:19:57;;;;;;;0.10;0.10;;;22.20;99.90;;;;;;5037762;28;20096;-81
2023/07/20 04:22:23;;;;;;;0.10;0.10;;;22.30;99.90;;;;;;5036772;28;20023;-85
2023/07/20 04:24:49;;;;;;;0.10;0.10;;;22.40;99.90;;;;;;5037703;28;20097;-79
2023/07/20 04:27:14;;;;;;;0.20;0.20;;;22.60;99.90;;;;;;5037650;28;20029;-77
2023/07/20 04:29:40;;;;;;;0.20;0.20;;;22.70;99.90;;;;;;5038203;28;20091;-79
2023/07/20 04:32:07;;;;;;;0.28;0.28;;;22.70;99.90;;;;;;5037641;28;20036;-80
2023/07/20 04:34:37;;;;;;;0.10;0.10;;;22.80;99.90;;;;;;5038570;28;20021;-85
2023/07/20 04:37:03;;;;;;;0.10;0.10;;;22.80;99.90;;;;;;5040052;28;20467;-77
2023/07/20 04:39:30;;;;;;;0.10;0.10;;;22.90;99.90;;;;;;5039786;28;20090;-81
2023/07/20 04:41:56;;;;;;;0.08;0.08;;;22.90;99.90;;;;;;5043303;28;20035;-80
2023/07/20 04:44:22;;;;;;;0.10;0.10;;;22.90;99.90;;;;;;5042210;28;20025;-87
2023/07/20 04:46:48;;;;;;;0.10;0.10;;;23.00;99.90;;;;;;5042421;28;20036;-82
2023/07/20 04:49:14;;;;;;;0.10;0.10;;;23.00;99.90;;;;;;5041511;28;20024;-79
2023/07/20 04:51:40;;;;;;;0.10;0.10;;;23.00;99.90;;;;;;5041222;28;20690;-81
2023/07/20 04:54:05;;;;;;;0.10;0.10;;;23.10;99.90;;;;;;5040730;28;20115;-78
2023/07/20 04:56:31;;;;;;;0.10;0.10;;;22.80;99.90;;;;;;5041958;28;20028;-83
2023/07/20 04:58:57;;;;;;;0.10;0.10;;;22.20;99.90;;;;;;5041282;28;20056;-89
2023/07/20 05:01:23;;;;;;;0.10;0.10;;;21.90;99.90;;;;;;5040336;28;20064;-77
2023/07/20 05:03:49;;;;;;;0.10;0.10;;;20.80;99.90;;;;;;5045586;28;20013;-85
2023/07/20 05:06:16;;;;;;;0.10;0.10;;;20.30;99.90;;;;;;5047487;28;20036;-86
2023/07/20 05:08:42;;;;;;;0.10;0.10;;;20.50;99.90;;;;;;5054532;28;20040;-84
2023/07/20 05:11:07;;;;;;;0.10;0.10;;;20.50;99.90;;;;;;5052196;28;20029;-81
2023/07/20 05:13:34;;;;;;;0.10;0.10;;;20.50;99.90;;;;;;5047255;28;20100;-85
2023/07/20 05:15:59;;;;;;;0.10;0.10;;;20.00;99.90;;;;;;5047221;28;20017;-74
2023/07/20 05:18:25;;;;;;;0.10;0.10;;;20.50;99.90;;;;;;5044712;28;20021;-81
2023/07/20 05:20:51;;;;;;;0.10;0.10;;;20.80;99.90;;;;;;5041571;28;20212;-86
2023/07/20 05:23:19;;;;;;;0.10;0.10;;;20.90;99.90;;;;;;5040953;28;20786;-74
2023/07/20 05:25:45;;;;;;;0.75;0.75;;;21.10;99.90;;;;;;5040915;28;20659;-74
2023/07/20 05:28:12;;;;;;;0.10;0.10;;;21.50;99.90;;;;;;5040139;28;20029;-75
2023/07/20 05:30:37;;;;;;;0.10;0.10;;;21.80;99.90;;;;;;5040889;28;20036;-77
2023/07/20 05:33:03;;;;;;;0.10;0.10;;;22.00;99.90;;;;;;5040286;28;20674;-89
2023/07/20 05:35:29;;;;;;;0.20;0.20;;;22.10;99.90;;;;;;5039397;28;20025;-80
2023/07/20 05:37:55;;;;;;;0.10;0.10;;;21.90;99.90;;;;;;5040320;28;20667;-88
2023/07/20 05:40:21;;;;;;;0.10;0.10;;;22.20;99.90;;;;;;5040199;28;20048;-75
2023/07/20 05:42:51;;;;;;;0.10;0.10;;;22.40;99.90;;;;;;5039488;28;20100;-77
2023/07/20 05:45:17;;;;;;;2.95;2.45;;;22.60;99.90;;;;;;5038770;28;20576;-78
2023/07/20 05:47:43;;;;;;;0.10;0.10;;;22.80;99.90;;;;;;5039858;28;20033;-73
2023/07/20 05:50:10;;;;;;;0.10;0.10;;;22.90;99.90;;;;;;5039040;28;20013;-78
2023/07/20 05:52:37;;;;;;;0.10;0.10;;;23.10;99.90;;;;;;5040086;28;20025;-76
2023/07/20 05:55:03;;;;;;;0.00;0.00;;;23.20;99.90;;;;;;5039159;28;20016;-81
2023/07/20 05:57:29;;;;;;;0.10;0.10;;;23.20;99.90;;;;;;5039759;28;20037;-80
2023/07/20 05:59:55;;;;;;;0.10;0.10;;;23.20;99.90;;;;;;5039916;28;20087;-74
2023/07/20 06:02:21;;;;;;;0.10;0.10;;;23.20;99.90;;;;;;5038765;28;20025;-86
2023/07/20 06:04:47;;;;;;;0.32;0.32;;;23.20;99.90;;;;;;5040021;28;20048;-87
2023/07/20 06:07:12;;;;;;;0.03;0.03;;;23.20;99.90;;;;;;5039604;28;20029;-77
2023/07/20 06:09:39;;;;;;;0.10;0.10;;;24.30;99.90;;;;;;5039755;28;20021;-85
2023/07/20 06:12:05;;;;;;;0.20;0.20;;;23.30;99.90;;;;;;5039574;28;20025;-83
2023/07/20 06:14:31;;;;;;;0.90;0.90;;;23.20;99.90;;;;;;5037753;28;20032;-74
2023/07/20 06:16:57;;;;;;;0.10;0.10;;;23.50;99.90;;;;;;5039131;28;20017;-75
2023/07/20 06:19:23;;;;;;;0.10;0.10;;;23.60;99.90;;;;;;5038802;28;20013;-85
2023/07/20 06:21:49;;;;;;;0.10;0.10;;;23.70;99.90;;;;;;5038734;28;20021;-86
2023/07/20 06:24:16;;;;;;;2.05;1.95;;;23.80;99.90;;;;;;5037406;28;20021;-78
2023/07/20 06:26:42;;;;;;;0.10;0.10;;;23.90;99.90;;;;;;5038713;28;20017;-81
2023/07/20 06:29:08;;;;;;;0.17;0.17;;;24.00;99.90;;;;;;5038370;28;20035;-84
2023/07/20 06:32:01;;;;;;;0.05;0.05;;;27.10;99.90;;;;;;5038875;28;20112;-80
2023/07/20 06:34:23;;;;;;;0.03;0.03;;;24.10;99.90;;;;;;5037230;28;20037;-76
2023/07/20 06:36:49;;;;;;;1.27;1.23;;;24.20;99.90;;;;;;5037374;28;20055;-78
2023/07/20 06:39:15;;;;;;;0.10;0.10;;;24.30;99.90;;;;;;5037207;28;20039;-83
2023/07/20 06:41:41;;;;;;;0.10;0.10;;;;;;;;;;5038910;28;20013;-73
2023/07/20 06:44:07;;;;;;;0.10;0.10;;;24.50;99.90;;;;;;5038345;28;20053;-77
2023/07/20 06:46:33;;;;;;;0.20;0.20;;;24.50;99.90;;;;;;5037920;28;20094;-83
2023/07/20 06:48:59;;;;;;;0.10;0.10;;;24.60;99.90;;;;;;5038337;28;20009;-83
2023/07/20 06:51:25;;;;;;;0.10;0.10;;;24.70;99.90;;;;;;5038068;28;20063;-85
2023/07/20 06:53:50;;;;;;;0.10;0.10;;;24.70;99.90;;;;;;5038209;28;20028;-85
2023/07/20 06:56:16;;;;;;;0.10;0.10;;;24.70;99.90;;;;;;5038202;28;20029;-83
2023/07/20 06:58:42;;;;;;;0.10;0.10;;;24.70;99.90;;;;;;5035986;28;20079;-79
2023/07/20 07:01:08;;;;;;;0.52;0.52;;;24.70;99.90;;;;;;5038053;28;20028;-77
2023/07/20 07:03:36;;;;;;;0.32;0.32;;;24.70;99.90;;;;;;5038242;28;20013;-74
2023/07/20 07:06:03;;;;;;;0.45;0.45;;;24.70;99.90;;;;;;5037921;28;20811;-80
2023/07/20 07:08:29;;;;;;;0.25;0.25;;;24.80;99.90;;;;;;5038122;28;20036;-86
2023/07/20 07:10:56;;;;;;;0.10;0.10;;;24.80;99.90;;;;;;5039256;28;20575;-73
2023/07/20 07:13:28;;;;;;;0.10;0.10;;;24.80;99.90;;;;;;5051652;28;20020;-74
2023/07/20 07:15:54;;;;;;;0.22;0.22;;;24.70;99.90;;;;;;5047413;28;20225;-73
2023/07/20 07:18:20;;;;;;;0.20;0.20;;;24.50;99.90;;;;;;5039442;28;20017;-86
2023/07/20 07:20:55;;;;;;;0.00;0.00;;;22.30;99.90;;;;;;5038169;28;20024;-79
2023/07/20 07:23:21;;;;;;;0.00;0.00;;;24.50;99.90;;;;;;5038755;28;20021;-74
2023/07/20 07:25:47;;;;;;;0.10;0.10;;;24.60;99.90;;;;;;5038861;28;20415;-81
2023/07/20 07:28:13;;;;;;;2.30;2.10;;;24.80;99.90;;;;;;5038896;28;20044;-75
2023/07/20 07:30:39;;;;;;;1.92;1.40;;;24.70;99.90;;;;;;5038320;28;20123;-73
2023/07/20 07:33:05;;;;;;;0.10;0.10;;;24.90;99.90;;;;;;5037826;28;20029;-85
2023/07/20 07:35:30;;;;;;;0.05;0.05;;;25.10;99.90;;;;;;5038431;28;20013;-76
2023/07/20 07:37:56;;;;;;;0.00;0.00;;;25.20;99.90;;;;;;5037942;28;20082;-80
2023/07/20 07:40:22;;;;;;;0.10;0.10;;;24.90;99.90;;;;;;5039187;28;20531;-85
2023/07/20 07:42:48;;;;;;;0.10;0.10;;;25.20;99.90;;;;;;5040002;28;20028;-84
2023/07/20 07:45:14;;;;;;;0.03;0.03;;;25.30;99.90;;;;;;5027633;28;20028;-80
2023/07/20 07:47:40;;;;;;;0.00;0.00;;;25.50;99.90;;;;;;5017864;28;20044;-87
2023/07/20 07:50:06;;;;;;;12.60;10.82;;;25.50;99.90;;;;;;5027388;28;20017;-87
2023/07/20 07:52:32;;;;;;;0.22;0.22;;;25.50;99.90;;;;;;5030418;28;20120;-82
2023/07/20 07:54:58;;;;;;;0.68;0.68;;;24.30;99.90;;;;;;5023518;28;20096;-77
2023/07/20 07:57:24;;;;;;;0.10;0.10;;;25.90;99.90;;;;;;5015912;28;20226;-75
2023/07/20 07:59:50;;;;;;;0.00;0.00;;;25.80;99.90;;;;;;5017482;28;20685;-79
2023/07/20 08:02:15;;;;;;;0.10;0.10;;;25.90;99.90;;;;;;5017356;28;20124;-76
2023/07/20 08:04:41;;;;;;;0.75;0.75;;;25.90;99.90;;;;;;5017283;28;20096;-76
2023/07/20 08:07:07;;;;;;;0.10;0.10;;;26.10;99.90;;;;;;5016371;28;20730;-75
2023/07/20 08:09:33;;;;;;;0.10;0.10;;;25.90;99.90;;;;;;5016075;28;20017;-81
2023/07/20 08:11:59;;;;;;;0.20;0.20;;;25.70;99.90;;;;;;5017541;28;20025;-74
2023/07/20 08:14:25;;;;;;;0.10;0.10;;;25.70;99.90;;;;;;5019995;28;20017;-73
2023/07/20 08:16:51;;;;;;;0.10;0.10;;;25.90;99.90;;;;;;5021409;28;20024;-81
2023/07/20 08:19:17;;;;;;;0.10;0.10;;;25.90;99.90;;;;;;5022145;28;20803;-80
2023/07/20 08:21:43;;;;;;;0.00;0.00;;;26.10;99.90;;;;;;5023178;28;20029;-75
2023/07/20 08:24:09;;;;;;;0.00;0.00;;;26.30;99.90;;;;;;5022030;28;20033;-83
2023/07/20 08:26:35;;;;;;;0.10;0.10;;;25.90;99.90;;;;;;5022974;28;20575;-74
2023/07/20 08:29:01;;;;;;;0.03;0.03;;;26.30;99.90;;;;;;5019408;28;20030;-73
2023/07/20 08:31:30;;;;;;;0.05;0.05;;;28.00;99.90;;;;;;5018813;28;20100;-72
2023/07/20 08:33:56;;;;;;;0.10;0.10;;;26.40;99.90;;;;;;5020574;28;20095;-80
2023/07/20 08:36:23;;;;;;;0.10;0.10;;;26.50;99.90;;;;;;5029625;28;20635;-72
2023/07/20 08:38:49;;;;;;;0.10;0.10;;;26.70;99.90;;;;;;5034993;28;20076;-74
2023/07/20 08:41:15;;;;;;;0.00;0.00;;;27.00;99.90;;;;;;5036530;28;20032;-75
2023/07/20 08:43:43;;;;;;;0.00;0.00;;;27.10;99.90;;;;;;5032665;28;20017;-79
2023/07/20 08:46:12;;;;;;;6.03;1.55;;;27.20;99.90;;;;;;5033604;28;20032;-77
2023/07/20 08:48:40;;;;;;;0.00;0.00;;;27.40;99.90;;;;;;5030853;28;20542;-75
2023/07/20 08:51:06;;;;;;;0.20;0.20;;;27.60;99.90;;;;;;5032452;28;20016;-74
2023/07/20 08:53:32;;;;;;;0.10;0.10;;;27.60;99.90;;;;;;5032855;28;20108;-76
2023/07/20 08:55:59;;;;;;;0.68;0.55;;;27.70;98.70;;;;;;5035421;28;20025;-74
2023/07/20 08:58:27;;;;;;;0.00;0.00;;;27.60;97.50;;;;;;5028089;28;20038;-75
2023/07/20 09:00:55;;;;;;;0.10;0.10;;;27.50;97.30;;;;;;5027003;28;20567;-73
2023/07/20 09:03:21;;;;;;;0.00;0.00;;;27.40;96.90;;;;;;5028216;28;20020;-74
2023/07/20 09:05:47;;;;;;;0.00;0.00;;;27.60;96.70;;;;;;5024981;28;20052;-73
2023/07/20 09:08:13;;;;;;;0.00;0.00;;;27.70;97.40;;;;;;5029207;28;20076;-78
2023/07/20 09:10:39;;;;;;;0.00;0.00;;;27.80;97.70;;;;;;5031392;28;20214;-78
2023/07/20 09:13:05;;;;;;;0.00;0.00;;;27.90;97.70;;;;;;5030701;28;20556;-75
2023/07/20 09:15:30;;;;;;;0.15;0.15;;;27.90;96.50;;;;;;5027691;28;20098;-76
2023/07/20 09:17:56;;;;;;;0.10;0.10;;;27.90;96.80;;;;;;5033724;28;20013;-73
2023/07/20 09:20:22;;;;;;;0.10;0.10;;;27.90;97.00;;;;;;5021293;28;20064;-75
2023/07/20 09:22:49;;;;;;;0.17;0.17;;;27.90;97.00;;;;;;5029298;28;20017;-80
2023/07/20 09:25:22;;;;;;;0.10;0.10;;;28.00;96.70;;;;;;5028757;28;20025;-72
2023/07/20 09:27:49;;;;;;;0.00;0.00;;;28.00;97.30;;;;;;5031181;28;20040;-74
2023/07/20 09:30:16;;;;;;;0.10;0.10;;;28.20;96.10;;;;;;5027457;28;20096;-76
2023/07/20 09:32:46;;;;;;;0.77;0.77;;;28.40;95.40;;;;;;5029903;28;20023;-74
2023/07/20 09:35:20;;;;;;;0.10;0.10;;;28.50;94.70;;;;;;5029891;28;20574;-73
2023/07/20 09:37:52;;;;;;;0.00;0.00;;;28.50;95.30;;;;;;5026440;28;20029;-73
2023/07/20 09:40:18;;;;;;;0.40;0.40;;;28.40;95.00;;;;;;5020269;28;20105;-77
2023/07/20 09:42:44;;;;;;;0.10;0.10;;;28.50;93.90;;;;;;5025224;28;20139;-80
2023/07/20 09:45:11;;;;;;;0.08;0.08;;;28.60;92.90;;;;;;5029552;28;20057;-77
2023/07/20 09:47:38;;;;;;;0.00;0.00;;;28.70;92.60;;;;;;5030941;28;20017;-72
2023/07/20 09:50:04;;;;;;;0.10;0.10;;;28.60;92.10;;;;;;5029032;28;20074;-74
2023/07/20 09:52:31;;;;;;;0.00;0.00;;;28.90;91.40;;;;;;5034178;28;20022;-77
2023/07/20 09:54:58;;;;;;;0.10;0.10;;;28.90;92.50;;;;;;5021905;28;20014;-77
2023/07/20 09:57:26;;;;;;;1.90;0.55;;;28.90;93.20;;;;;;5017784;28;20040;-79
2023/07/20 09:59:51;;;;;;;0.00;0.00;;;29.00;91.60;;;;;;5021047;28;20052;-76
2023/07/20 10:02:25;;;;;;;0.47;0.47;;;29.10;91.20;;;;;;5026886;28;20525;-79
2023/07/20 10:04:54;;;;;;;0.10;0.10;;;29.00;91.20;;;;;;5053863;28;20749;-73
2023/07/20 10:07:23;;;;;;;0.00;0.00;;;29.10;92.40;;;;;;5053541;28;20025;-73
2023/07/20 10:09:53;;;;;;;0.75;0.75;;;32.60;94.10;;;;;;5030386;28;20036;-75
2023/07/20 10:12:23;;;;;;;0.03;0.03;;;28.00;90.90;;;;;;5029432;28;20371;-79
2023/07/20 10:14:59;;;;;;;0.08;0.08;;;29.30;91.80;;;;;;5032315;28;20017;-79
2023/07/20 10:17:26;;;;;;;2.17;2.03;;;29.30;92.80;;;;;;5034162;28;20029;-75
2023/07/20 10:19:56;;;;;;;2.08;1.27;;;29.50;92.70;;;;;;5032030;28;20104;-81
2023/07/20 10:22:30;;;;;;;19.50;9.95;;;29.60;91.40;;;;;;5031385;28;20020;-81
2023/07/20 10:24:58;;;;;;;0.00;0.00;;;27.30;91.70;;;;;;5062303;28;20599;-83
2023/07/20 10:27:25;;;;;;;0.00;0.00;;;29.60;92.20;;;;;;5026938;28;20038;-77
2023/07/20 10:29:53;;;;;;;0.22;0.22;;;29.60;90.40;;;;;;5029456;28;20031;-75
2023/07/20 10:32:20;;;;;;;0.10;0.10;;;30.00;92.80;;;;;;5021928;28;20028;-75
2023/07/20 10:34:52;;;;;;;0.10;0.10;;;29.60;91.90;;;;;;5018194;28;20033;-73
2023/07/20 10:37:48;;;;;;;0.00;0.00;;;29.80;91.10;;;;;;5030893;28;20013;-75
2023/07/20 10:40:34;;;;;;;1.00;0.50;;;29.90;89.90;;;;;;5044337;28;20025;-82
2023/07/20 10:43:10;;;;;;;0.00;0.00;;;30.10;90.80;;;;;;5044112;28;20017;-77
2023/07/20 10:45:38;;;;;;;0.28;0.28;;;30.20;88.40;;;;;;5038576;28;20017;-79
2023/07/20 10:48:05;;;;;;;0.63;0.63;;;30.10;85.80;;;;;;5036035;28;20713;-79
2023/07/20 10:50:34;;;;;;;0.10;0.10;;;30.30;86.90;;;;;;5018473;28;20599;-79
2023/07/20 10:53:17;;;;;;;0.57;0.57;;;30.30;89.10;;;;;;5017606;28;20688;-79
2023/07/20 10:55:43;;;;;;;0.10;0.10;;;30.30;89.10;;;;;;5017624;28;20572;-77
2023/07/20 10:58:14;;;;;;;0.32;0.30;;;30.50;89.70;;;;;;5018321;28;20045;-78
2023/07/20 11:01:18;;;;;;;0.00;0.00;;;30.90;89.90;;;;;;5018183;28;20025;-74
2023/07/20 11:03:50;;;;;;;0.00;0.00;;;31.20;87.50;;;;;;4978835;28;20117;-77
2023/07/20 11:06:28;;;;;;;0.10;0.10;;;28.50;85.00;;;;;;4995009;28;20731;-79
2023/07/20 11:09:03;;;;;;;0.20;0.20;;;31.00;86.50;;;;;;4995139;28;20033;-76
2023/07/20 11:11:31;;;;;;;1.02;1.02;;;30.90;86.30;;;;;;4995473;28;20037;-80
2023/07/20 11:14:01;;;;;;;0.00;0.00;;;30.10;88.00;;;;;;5014555;28;20025;-79
2023/07/20 11:16:43;;;;;;;0.25;0.25;;;31.00;87.60;;;;;;5015227;28;20688;-76
2023/07/20 11:19:20;;;;;;;0.00;0.00;;;31.00;87.60;;;;;;5015098;28;20047;-76
2023/07/20 11:21:50;;;;;;;0.15;0.15;;;31.20;87.50;;;;;;5014320;28;20028;-83
2023/07/20 11:24:16;;;;;;;0.00;0.00;;;31.30;85.40;;;;;;5014512;28;20029;-78
2023/07/20 11:26:49;;;;;;;0.10;0.10;;;31.60;84.30;;;;;;5014675;28;20059;-78
2023/07/20 11:29:21;;;;;;;0.55;0.52;;;31.80;84.70;;;;;;5030454;28;20034;-78
2023/07/20 11:31:47;;;;;;;0.10;0.10;;;31.80;85.10;;;;;;5014342;28;20026;-78
2023/07/20 11:34:15;;;;;;;0.13;0.13;;;31.90;83.60;;;;;;5014868;28;20257;-79
2023/07/20 11:36:42;;;;;;;0.10;0.10;;;32.20;84.90;;;;;;5016058;28;20030;-74
2023/07/20 11:39:15;;;;;;;0.13;0.13;;;32.40;83.60;;;;;;5036175;28;20226;-75
2023/07/20 11:41:57;;;;;;;2.33;2.13;;;32.50;82.60;;;;;;5037509;28;20025;-77
2023/07/20 11:44:27;;;;;;;0.10;0.10;;;32.80;83.30;;;;;;5017538;28;20017;-76
2023/07/20 11:47:09;;;;;;;0.98;0.93;;;33.20;82.90;;;;;;5017344;28;20025;-79
2023/07/20 11:49:43;;;;;;;0.55;0.43;;;33.60;80.20;;;;;;5020676;28;20017;-74
2023/07/20 11:52:11;;;;;;;0.10;0.10;;;33.50;79.40;;;;;;5022640;28;20033;-75
2023/07/20 11:54:39;;;;;;;0.85;0.85;;;33.10;79.60;;;;;;5023730;28;20653;-73
2023/07/20 11:57:05;;;;;;;0.15;0.15;;;34.60;78.20;;;;;;5023984;28;20112;-75
2023/07/20 11:59:32;;;;;;;1.55;0.50;;;34.60;79.10;;;;;;5022760;28;20700;-76
2023/07/20 12:02:03;;;;;;;0.15;0.15;;;34.90;76.40;;;;;;5021283;28;20026;-74
2023/07/20 12:04:29;;;;;;;0.10;0.10;;;34.90;75.60;;;;;;5021687;28;20017;-73
2023/07/20 12:06:55;;;;;;;0.00;0.00;;;34.90;76.60;;;;;;5021171;28;20060;-77
2023/07/20 12:09:21;;;;;;;0.08;0.08;;;35.10;76.80;;;;;;5021772;28;20651;-73
2023/07/20 12:11:50;;;;;;;0.10;0.10;;;35.30;78.30;;;;;;5020740;28;20017;-73
2023/07/20 12:14:16;;;;;;;0.03;0.03;;;35.50;73.10;;;;;;5041076;28;20017;-73
2023/07/20 12:16:41;;;;;;;0.28;0.22;;;35.70;71.60;;;;;;5042209;28;20551;-78
2023/07/20 12:19:12;;;;;;;0.00;0.00;;;36.20;70.60;;;;;;5040732;28;20025;-81
2023/07/20 12:21:40;;;;;;;0.25;0.25;;;36.00;70.20;;;;;;5040109;28;20025;-76
2023/07/20 12:24:09;;;;;;;0.43;0.13;;;35.80;70.30;;;;;;5040849;28;20021;-73
2023/07/20 12:26:35;;;;;;;1.55;1.35;;;35.60;70.30;;;;;;5041373;28;20025;-77
2023/07/20 12:29:00;;;;;;;0.10;0.10;;;36.00;70.60;;;;;;5038127;28;20033;-79
2023/07/20 12:31:27;;;;;;;0.22;0.22;;;36.30;69.20;;;;;;5026894;28;20017;-75
2023/07/20 12:33:57;;;;;;;0.15;0.15;;;36.00;69.90;;;;;;5027054;28;20041;-74
2023/07/20 12:36:23;;;;;;;0.10;0.10;;;36.10;69.30;;;;;;5031557;28;20021;-84
2023/07/20 12:38:49;;;;;;;0.10;0.10;;;36.10;69.90;;;;;;5027789;28;20071;-84
2023/07/20 12:41:15;;;;;;;0.10;0.10;;;34.80;68.20;;;;;;5024532;28;20037;-84
2023/07/20 12:43:45;;;;;;;0.22;0.22;;;36.10;70.00;;;;;;5023331;28;20090;-75
2023/07/20 12:46:13;;;;;;;0.10;0.10;;;36.30;70.30;;;;;;5027239;28;20095;-81
2023/07/20 12:48:41;;;;;;;0.10;0.10;;;36.90;69.20;;;;;;5024534;28;20047;-77
2023/07/20 12:51:09;;;;;;;0.10;0.10;;;36.90;69.50;;;;;;5029980;28;20529;-81